Time;durP1;ratioP1;P1;durP2;ratioP2;P2;SDS_P1;SDS_P2;PMS_P1;PMS_P2;Temp;Humidity;BMP_temperature;BMP_pressure;BME280_temperature;BME280_humidity;BME280_pressure;Samples;Min_cycle;Max_cycle;Signal;HPM_P1;HPM_P2
2023/09/21 00:01:18;;;;;;;2.97;0.70;;;19.10;68.30;;;;;;4847978;29;20049;-92
2023/09/21 00:03:48;;;;;;;4.00;0.95;;;19.10;68.20;;;;;;4847564;29;20053;-93
2023/09/21 00:06:17;;;;;;;4.27;0.80;;;19.00;68.40;;;;;;4847809;29;20057;-91
2023/09/21 00:08:48;;;;;;;4.95;0.88;;;19.00;68.40;;;;;;4847692;29;20057;-92
2023/09/21 00:11:18;;;;;;;4.80;0.88;;;19.00;68.30;;;;;;4848487;29;20092;-93
2023/09/21 00:13:51;;;;;;;2.97;0.52;;;19.00;68.40;;;;;;4861850;29;20107;-93
2023/09/21 00:16:19;;;;;;;4.55;1.00;;;19.00;68.40;;;;;;4847284;29;20521;-93
2023/09/21 00:18:47;;;;;;;6.00;0.97;;;19.00;68.30;;;;;;4862866;29;20053;-92
2023/09/21 00:21:15;;;;;;;4.25;1.10;;;19.00;68.10;;;;;;4847606;29;20115;-93
2023/09/21 00:23:44;;;;;;;5.60;0.80;;;19.00;68.00;;;;;;4862870;29;20169;-93
2023/09/21 00:26:12;;;;;;;4.68;1.13;;;19.00;68.10;;;;;;4847518;29;20504;-91
2023/09/21 00:28:43;;;;;;;2.85;0.85;;;19.00;67.80;;;;;;4847746;29;20231;-92
2023/09/21 00:31:12;;;;;;;3.43;0.80;;;19.00;67.90;;;;;;4847343;29;20052;-93
2023/09/21 00:33:40;;;;;;;4.20;0.73;;;19.00;67.90;;;;;;4862730;29;20049;-92
2023/09/21 00:36:13;;;;;;;3.30;0.88;;;19.00;67.80;;;;;;4847364;29;20504;-93
2023/09/21 00:38:41;;;;;;;4.38;0.73;;;19.00;67.90;;;;;;4847558;29;20136;-91
2023/09/21 00:41:09;;;;;;;2.15;0.63;;;19.00;67.50;;;;;;4847141;29;20049;-93
2023/09/21 00:43:37;;;;;;;3.17;0.70;;;19.00;67.50;;;;;;4862104;29;20074;-92
2023/09/21 00:46:06;;;;;;;3.03;0.80;;;19.00;67.40;;;;;;4862380;29;20428;-93
2023/09/21 00:48:42;;;;;;;5.95;1.05;;;19.00;67.20;;;;;;4847058;29;20049;-93
2023/09/21 00:51:12;;;;;;;3.35;0.90;;;19.10;67.20;;;;;;4862693;29;20045;-92
2023/09/21 00:53:44;;;;;;;3.10;0.90;;;19.00;67.20;;;;;;4861810;29;20049;-93
2023/09/21 00:56:13;;;;;;;4.63;0.90;;;19.00;67.20;;;;;;4847004;29;20478;-94
2023/09/21 00:58:50;;;;;;;4.78;0.88;;;19.00;67.20;;;;;;4847204;29;20053;-91
2023/09/21 01:01:22;;;;;;;2.58;0.63;;;19.00;67.30;;;;;;4846783;29;20077;-92
2023/09/21 01:03:53;;;;;;;5.78;1.08;;;19.00;67.40;;;;;;4847038;29;20045;-93
2023/09/21 01:06:23;;;;;;;3.05;0.63;;;19.00;67.50;;;;;;4862134;29;20049;-93
2023/09/21 01:08:51;;;;;;;4.03;0.90;;;19.00;67.20;;;;;;4847432;29;20144;-91
2023/09/21 01:11:20;;;;;;;4.80;1.08;;;18.90;67.40;;;;;;4847308;29;20049;-94
2023/09/21 01:13:51;;;;;;;5.40;1.05;;;18.90;67.40;;;;;;4862378;29;20056;-93
2023/09/21 01:16:18;;;;;;;3.58;0.90;;;18.90;67.40;;;;;;4847478;29;20084;-93
2023/09/21 01:18:46;;;;;;;4.88;1.08;;;18.90;67.40;;;;;;4861942;29;20049;-93
2023/09/21 01:21:21;;;;;;;3.07;0.70;;;18.90;67.40;;;;;;4846486;29;20061;-93
2023/09/21 01:23:49;;;;;;;3.08;0.73;;;18.90;67.50;;;;;;4845690;29;20057;-91
2023/09/21 01:26:18;;;;;;;4.38;0.80;;;18.90;67.50;;;;;;4845951;29;20064;-94
2023/09/21 01:28:47;;;;;;;5.93;0.90;;;18.90;67.40;;;;;;4861570;29;20074;-92
2023/09/21 01:31:18;;;;;;;7.20;1.02;;;18.90;67.40;;;;;;4861515;29;20057;-92
2023/09/21 01:33:49;;;;;;;6.20;1.00;;;18.90;67.10;;;;;;4861771;29;20141;-91
2023/09/21 01:36:16;;;;;;;2.75;0.60;;;19.00;67.30;;;;;;4845914;29;20101;-93
2023/09/21 01:38:48;;;;;;;5.03;0.93;;;18.90;67.20;;;;;;4846632;29;20051;-93
2023/09/21 01:41:19;;;;;;;5.38;0.80;;;18.90;67.30;;;;;;4846769;29;20049;-94
2023/09/21 01:43:47;;;;;;;7.20;1.05;;;18.90;67.50;;;;;;4862171;29;20528;-93
2023/09/21 01:46:18;;;;;;;2.67;0.60;;;19.00;67.30;;;;;;4846373;29;20114;-92
2023/09/21 01:48:51;;;;;;;5.18;0.70;;;19.00;67.30;;;;;;4847038;29;20101;-93
2023/09/21 01:51:20;;;;;;;4.90;1.10;;;19.00;67.10;;;;;;4846466;29;20053;-91
2023/09/21 01:53:48;;;;;;;4.82;0.70;;;19.00;67.10;;;;;;4846075;29;20045;-93
2023/09/21 01:56:16;;;;;;;4.10;0.85;;;18.90;67.20;;;;;;4845858;29;20137;-92
2023/09/21 01:58:44;;;;;;;3.27;0.90;;;19.00;67.30;;;;;;4860857;29;20061;-92
2023/09/21 02:01:16;;;;;;;2.63;0.80;;;18.90;67.40;;;;;;4846519;29;20073;-92
2023/09/21 02:03:44;;;;;;;6.70;0.80;;;18.90;67.20;;;;;;4846241;29;20754;-92
2023/09/21 02:06:12;;;;;;;2.80;0.70;;;18.90;67.20;;;;;;4862120;29;20508;-93
2023/09/21 02:08:40;;;;;;;5.90;0.93;;;18.90;67.30;;;;;;4861445;29;20508;-92
2023/09/21 02:11:10;;;;;;;4.23;0.87;;;18.90;67.40;;;;;;4861774;29;20058;-94
2023/09/21 02:13:38;;;;;;;3.25;0.65;;;18.80;67.50;;;;;;4846069;29;20054;-92
2023/09/21 02:16:06;;;;;;;3.70;0.88;;;18.80;67.40;;;;;;4861467;29;20046;-93
2023/09/21 02:18:34;;;;;;;5.00;0.80;;;18.80;67.50;;;;;;4846783;29;20416;-92
2023/09/21 02:21:08;;;;;;;3.45;0.80;;;18.80;67.30;;;;;;4846285;29;20500;-92
2023/09/21 02:23:37;;;;;;;3.73;0.80;;;18.80;67.50;;;;;;4846573;29;20082;-93
2023/09/21 02:26:09;;;;;;;3.92;1.20;;;18.80;67.60;;;;;;4846657;29;20105;-93
2023/09/21 02:28:37;;;;;;;4.78;1.10;;;18.80;67.60;;;;;;4845822;29;20045;-92
2023/09/21 02:31:07;;;;;;;4.38;0.90;;;18.80;67.70;;;;;;4860812;29;20053;-92
2023/09/21 02:33:35;;;;;;;4.32;1.15;;;18.80;67.80;;;;;;4860992;29;20507;-91
2023/09/21 02:36:12;;;;;;;4.10;0.97;;;18.80;67.80;;;;;;4846918;29;20082;-92
2023/09/21 02:38:40;;;;;;;3.15;0.90;;;18.80;67.70;;;;;;4849725;29;20073;-92
2023/09/21 02:41:07;;;;;;;7.05;1.60;;;18.70;67.80;;;;;;4864213;29;20081;-93
2023/09/21 02:43:35;;;;;;;5.53;1.85;;;18.70;67.60;;;;;;4849176;29;20544;-92
2023/09/21 02:46:07;;;;;;;4.90;1.50;;;18.80;67.40;;;;;;4849195;29;20045;-92
2023/09/21 02:48:34;;;;;;;6.40;1.67;;;18.80;67.50;;;;;;4849264;29;20065;-93
2023/09/21 02:51:04;;;;;;;9.00;1.90;;;18.90;67.10;;;;;;4849038;29;20453;-93
2023/09/21 02:53:32;;;;;;;4.82;1.60;;;18.90;67.50;;;;;;4849069;29;20069;-93
2023/09/21 02:56:03;;;;;;;5.90;1.30;;;18.90;67.50;;;;;;4865066;29;20058;-93
2023/09/21 02:58:31;;;;;;;4.78;1.30;;;18.90;67.40;;;;;;4849671;29;20136;-93
2023/09/21 03:00:59;;;;;;;6.07;1.40;;;18.80;67.50;;;;;;4864580;29;20050;-93
2023/09/21 03:03:27;;;;;;;6.25;1.23;;;18.80;67.30;;;;;;4848960;29;20087;-93
2023/09/21 03:05:55;;;;;;;5.65;1.52;;;18.80;67.60;;;;;;4849263;29;20063;-93
2023/09/21 03:08:22;;;;;;;5.35;1.33;;;18.80;67.20;;;;;;4848695;29;20053;-91
2023/09/21 03:10:55;;;;;;;4.15;1.15;;;18.80;67.40;;;;;;4863857;29;20448;-94
2023/09/21 03:13:25;;;;;;;8.10;1.20;;;18.80;67.50;;;;;;4848925;29;20061;-92
2023/09/21 03:15:58;;;;;;;4.45;1.17;;;18.70;67.60;;;;;;4848871;29;20050;-92
2023/09/21 03:18:29;;;;;;;5.78;1.42;;;18.80;67.70;;;;;;4863818;29;20054;-93
2023/09/21 03:20:59;;;;;;;5.68;1.30;;;18.70;67.70;;;;;;4849144;29;20064;-92
2023/09/21 03:23:30;;;;;;;6.60;1.33;;;18.60;67.90;;;;;;4863674;29;20061;-93
2023/09/21 03:25:57;;;;;;;5.67;1.50;;;18.60;67.80;;;;;;4848728;29;20085;-94
2023/09/21 03:28:31;;;;;;;7.20;1.77;;;18.60;67.80;;;;;;4863476;29;20496;-92
2023/09/21 03:30:58;;;;;;;7.97;1.80;;;18.60;68.10;;;;;;4848475;29;20169;-91
2023/09/21 03:33:26;;;;;;;12.18;1.55;;;18.60;68.00;;;;;;4863667;29;20507;-91
2023/09/21 03:35:54;;;;;;;5.72;1.90;;;18.60;67.90;;;;;;4848192;29;20049;-92
2023/09/21 03:38:22;;;;;;;6.50;2.07;;;18.60;68.20;;;;;;4863785;29;20087;-92
2023/09/21 03:40:51;;;;;;;10.57;2.10;;;18.60;68.10;;;;;;4848190;29;20093;-92
2023/09/21 03:43:20;;;;;;;9.68;2.70;;;18.60;67.90;;;;;;4847978;29;20056;-92
2023/09/21 03:45:48;;;;;;;9.05;2.40;;;18.60;67.80;;;;;;4848308;29;20150;-92
2023/09/21 03:48:16;;;;;;;12.95;2.83;;;18.60;67.60;;;;;;4862768;29;20054;-92
2023/09/21 03:50:49;;;;;;;12.63;3.50;;;18.70;67.30;;;;;;4849005;29;20053;-92
2023/09/21 03:53:16;;;;;;;12.25;2.83;;;18.70;67.20;;;;;;4848089;29;20049;-95
2023/09/21 03:55:46;;;;;;;11.05;3.17;;;18.80;67.20;;;;;;4848686;29;20398;-95
2023/09/21 03:58:14;;;;;;;11.35;2.90;;;18.80;67.40;;;;;;4848948;29;20128;-93
2023/09/21 04:00:42;;;;;;;11.07;2.58;;;18.80;67.50;;;;;;4872246;29;20048;-95
2023/09/21 04:03:10;;;;;;;13.73;2.70;;;18.80;67.90;;;;;;4865873;29;20049;-91
2023/09/21 04:05:48;;;;;;;8.90;2.75;;;18.70;68.10;;;;;;4856366;29;20053;-95
2023/09/21 04:08:15;;;;;;;9.02;2.28;;;18.60;68.50;;;;;;4864784;29;20059;-90
2023/09/21 04:11:02;;;;;;;8.05;2.25;;;18.50;68.80;;;;;;4848247;29;20499;-94
2023/09/21 04:17:09;;;;;;;6.10;1.37;;;18.30;68.70;;;;;;5649372;23;20023;-93
2023/09/21 04:19:39;;;;;;;8.90;1.90;;;18.40;68.70;;;;;;4859493;29;20061;-95
2023/09/21 04:22:09;;;;;;;8.63;1.58;;;18.40;68.70;;;;;;4872092;29;20051;-95
2023/09/21 04:24:36;;;;;;;6.07;1.90;;;18.40;68.50;;;;;;4866465;29;20058;-92
2023/09/21 04:27:04;;;;;;;9.27;2.55;;;18.50;68.50;;;;;;4847391;29;20147;-93
2023/09/21 04:29:31;;;;;;;15.03;2.87;;;18.50;68.60;;;;;;4847605;29;20121;-93
2023/09/21 04:31:59;;;;;;;10.40;2.50;;;18.50;69.00;;;;;;4847927;29;20059;-94
2023/09/21 04:34:27;;;;;;;7.55;1.30;;;18.40;68.90;;;;;;4848127;29;20041;-94
2023/09/21 04:36:54;;;;;;;6.05;1.25;;;18.40;68.60;;;;;;4844483;29;20042;-93
2023/09/21 04:39:22;;;;;;;4.60;1.00;;;18.50;68.70;;;;;;4844937;29;20523;-94
2023/09/21 04:41:50;;;;;;;6.43;0.80;;;18.50;68.40;;;;;;4830309;29;20412;-95
2023/09/21 04:44:18;;;;;;;2.83;0.50;;;18.50;68.00;;;;;;4844999;29;20504;-93
2023/09/21 04:46:45;;;;;;;4.03;1.00;;;18.50;68.10;;;;;;4844746;29;20404;-94
2023/09/21 04:49:13;;;;;;;4.25;0.93;;;18.50;68.00;;;;;;4844489;29;20064;-94
2023/09/21 04:51:40;;;;;;;4.75;0.70;;;18.60;68.00;;;;;;4844152;29;20077;-93
2023/09/21 04:54:09;;;;;;;5.13;0.90;;;18.60;67.60;;;;;;4844352;29;20077;-95
2023/09/21 04:56:37;;;;;;;4.10;0.70;;;18.60;67.50;;;;;;4844403;29;20148;-94
2023/09/21 04:59:04;;;;;;;3.50;0.68;;;18.60;67.50;;;;;;4844468;29;20133;-93
2023/09/21 05:01:31;;;;;;;3.53;0.90;;;18.60;67.30;;;;;;4844828;29;20117;-93
2023/09/21 05:03:58;;;;;;;5.32;0.80;;;18.70;67.30;;;;;;4848663;29;20053;-94
2023/09/21 05:06:26;;;;;;;2.60;0.80;;;18.70;67.60;;;;;;4844938;29;20535;-93
2023/09/21 05:08:53;;;;;;;5.15;0.90;;;18.70;67.50;;;;;;4844693;29;20481;-94
2023/09/21 05:11:20;;;;;;;4.93;0.90;;;18.70;67.40;;;;;;4829571;29;20065;-92
2023/09/21 05:13:49;;;;;;;4.70;0.93;;;18.70;67.50;;;;;;4847227;29;20050;-95
2023/09/21 05:16:17;;;;;;;6.70;0.85;;;18.80;67.30;;;;;;4832697;29;20141;-93
2023/09/21 05:18:44;;;;;;;3.23;0.60;;;18.80;66.90;;;;;;4833162;29;20054;-94
2023/09/21 05:21:12;;;;;;;5.05;0.70;;;18.80;67.10;;;;;;4847519;29;20064;-95
2023/09/21 05:23:41;;;;;;;3.10;0.80;;;18.80;67.40;;;;;;4845665;29;20091;-93
2023/09/21 05:30:14;;;;;;;3.28;0.80;;;18.90;67.00;;;;;;4863128;29;20070;-95
2023/09/21 05:32:43;;;;;;;6.33;0.77;;;18.90;66.90;;;;;;4860776;29;20053;-95
2023/09/21 05:35:15;;;;;;;3.75;0.70;;;18.90;66.80;;;;;;4841780;29;20053;-94
2023/09/21 05:37:44;;;;;;;3.72;1.05;;;19.00;66.80;;;;;;4855898;29;20056;-93
2023/09/21 05:40:12;;;;;;;4.05;0.77;;;19.00;66.60;;;;;;4840645;29;20050;-94
2023/09/21 05:42:41;;;;;;;4.22;0.70;;;19.10;66.20;;;;;;4854910;29;20064;-93
2023/09/21 05:45:09;;;;;;;5.07;0.70;;;19.10;65.80;;;;;;4839098;29;20432;-94
2023/09/21 05:47:37;;;;;;;4.95;0.80;;;19.20;65.90;;;;;;4838913;29;20074;-95
2023/09/21 05:50:05;;;;;;;2.53;0.70;;;19.20;65.80;;;;;;4853799;29;20114;-95
2023/09/21 05:52:35;;;;;;;5.15;0.90;;;19.30;66.10;;;;;;4854816;29;20061;-94
2023/09/21 05:55:19;;;;;;;5.05;1.60;;;19.30;65.70;;;;;;4857140;29;20107;-95
2023/09/21 05:57:47;;;;;;;3.60;1.30;;;19.40;65.40;;;;;;4836872;29;20082;-94
2023/09/21 06:00:17;;;;;;;7.15;1.58;;;19.40;65.60;;;;;;4853020;29;20050;-95
2023/09/21 06:02:45;;;;;;;24.90;3.03;;;19.50;65.40;;;;;;4853280;29;20497;-94
2023/09/21 06:05:13;;;;;;;6.32;1.60;;;19.50;66.10;;;;;;4853368;29;20058;-94
2023/09/21 06:07:40;;;;;;;7.03;1.52;;;19.60;65.50;;;;;;4854404;29;20058;-95
2023/09/21 06:10:08;;;;;;;5.00;1.50;;;19.60;65.20;;;;;;4842427;29;20054;-95
2023/09/21 06:12:37;;;;;;;4.07;1.50;;;19.70;65.00;;;;;;4847830;29;20082;-94
2023/09/21 06:15:07;;;;;;;4.75;1.55;;;19.70;65.30;;;;;;4863084;29;20109;-95
2023/09/21 06:17:35;;;;;;;3.35;1.40;;;19.80;64.50;;;;;;4846641;29;20150;-95
2023/09/21 06:20:03;;;;;;;6.55;1.83;;;19.90;64.50;;;;;;4843932;29;20041;-95
2023/09/21 06:22:31;;;;;;;6.13;1.77;;;20.00;64.50;;;;;;4845396;29;20058;-94
2023/09/21 06:25:02;;;;;;;6.10;1.92;;;20.10;63.70;;;;;;4861301;29;20054;-95
2023/09/21 06:27:30;;;;;;;6.25;1.50;;;20.20;64.80;;;;;;4858337;29;20122;-95
2023/09/21 06:29:58;;;;;;;3.67;1.23;;;20.30;63.90;;;;;;4862755;29;20058;-96
2023/09/21 06:32:26;;;;;;;10.45;2.50;;;20.30;64.20;;;;;;4879616;29;20064;-95
2023/09/21 06:34:55;;;;;;;5.73;1.73;;;20.50;64.60;;;;;;4847036;29;20054;-95
2023/09/21 06:37:23;;;;;;;5.65;1.45;;;20.50;63.80;;;;;;4863756;29;20149;-96
2023/09/21 06:39:56;;;;;;;5.85;1.50;;;20.60;63.60;;;;;;4864124;29;20046;-95
2023/09/21 06:42:28;;;;;;;6.18;1.70;;;20.70;63.80;;;;;;4862792;29;20588;-95
2023/09/21 06:44:57;;;;;;;6.10;1.95;;;20.80;63.10;;;;;;4863660;29;20054;-95
2023/09/21 06:47:28;;;;;;;6.17;1.50;;;20.80;63.10;;;;;;4862673;29;20046;-95
2023/09/21 06:49:57;;;;;;;4.55;1.55;;;21.00;62.60;;;;;;4863538;29;20064;-95
2023/09/21 06:52:25;;;;;;;4.93;1.40;;;21.10;62.20;;;;;;4863145;29;20057;-94
2023/09/21 06:54:54;;;;;;;4.40;1.52;;;21.10;62.40;;;;;;4862392;29;20058;-95
2023/09/21 06:57:23;;;;;;;7.85;2.03;;;21.10;62.60;;;;;;4862791;29;20121;-94
2023/09/21 06:59:52;;;;;;;5.97;1.73;;;21.20;62.40;;;;;;4864431;29;20117;-94
2023/09/21 07:02:24;;;;;;;5.60;1.60;;;21.30;62.50;;;;;;4850768;29;20050;-94
2023/09/21 07:04:55;;;;;;;5.93;1.88;;;21.30;62.10;;;;;;4832315;29;20050;-95
2023/09/21 07:07:23;;;;;;;6.40;1.77;;;21.50;61.90;;;;;;4863467;29;20030;-95
2023/09/21 07:09:53;;;;;;;5.07;1.60;;;21.50;62.40;;;;;;4864133;29;20087;-94
2023/09/21 07:12:24;;;;;;;4.67;1.53;;;21.60;61.90;;;;;;4863299;29;20049;-96
2023/09/21 07:14:53;;;;;;;7.22;1.80;;;21.60;60.80;;;;;;4845315;29;20046;-95
2023/09/21 07:17:23;;;;;;;8.98;2.00;;;21.60;61.00;;;;;;4844782;29;20042;-95
2023/09/21 07:19:52;;;;;;;4.45;1.70;;;21.70;61.40;;;;;;4861530;29;20045;-95
2023/09/21 07:22:19;;;;;;;4.57;1.85;;;21.70;61.20;;;;;;4860023;29;20057;-95
2023/09/21 07:24:48;;;;;;;6.77;2.17;;;21.80;60.50;;;;;;4861241;29;20050;-96
2023/09/21 07:27:16;;;;;;;5.93;1.95;;;21.90;60.30;;;;;;4847126;29;20054;-95
2023/09/21 07:29:46;;;;;;;6.60;2.03;;;22.00;60.20;;;;;;4844708;29;20106;-95
2023/09/21 07:32:15;;;;;;;5.72;1.88;;;22.00;60.00;;;;;;4847393;29;20053;-95
2023/09/21 07:34:44;;;;;;;4.78;1.70;;;22.00;59.90;;;;;;4863178;29;20046;-95
2023/09/21 07:37:16;;;;;;;3.80;1.50;;;22.10;59.50;;;;;;4862883;29;20064;-95
2023/09/21 07:39:44;;;;;;;6.45;1.63;;;22.20;59.80;;;;;;4864083;29;20113;-95
2023/09/21 07:42:16;;;;;;;6.45;1.67;;;22.20;59.90;;;;;;4864027;29;20046;-96
2023/09/21 07:49:05;;;;;;;6.13;2.00;;;22.40;58.70;;;;;;4829005;29;20068;-95
2023/09/21 07:56:06;;;;;;;4.15;1.70;;;22.50;59.20;;;;;;4827377;29;20072;-93
2023/09/21 07:59:59;;;;;;;5.38;1.90;;;22.60;59.50;;;;;;4747317;30;20067;-95
2023/09/21 08:02:30;;;;;;;8.75;1.80;;;22.70;59.50;;;;;;4755609;30;20080;-95
2023/09/21 08:04:59;;;;;;;4.18;1.65;;;22.80;58.10;;;;;;4739965;30;20075;-95
2023/09/21 08:08:39;;;;;;;7.40;2.03;;;22.90;58.10;;;;;;4721003;30;20084;-95
2023/09/21 08:11:11;;;;;;;7.03;1.77;;;23.00;58.60;;;;;;4756227;30;20052;-95
2023/09/21 08:13:40;;;;;;;6.07;2.10;;;23.00;58.20;;;;;;4757979;30;20032;-95
2023/09/21 08:16:35;;;;;;;6.28;1.70;;;23.10;57.50;;;;;;4759160;30;20036;-96
2023/09/21 08:19:06;;;;;;;5.88;1.73;;;23.20;57.60;;;;;;4758216;30;20056;-96
2023/09/21 08:21:34;;;;;;;7.10;1.87;;;23.30;57.00;;;;;;4740091;30;20049;-94
2023/09/21 08:28:58;;;;;;;5.10;2.13;;;23.50;56.40;;;;;;4784472;29;20042;-96
2023/09/21 08:31:51;;;;;;;21.55;8.65;;;23.50;56.30;;;;;;4829799;29;20057;-94
2023/09/21 08:39:09;;;;;;;8.90;2.10;;;23.70;54.90;;;;;;4902601;29;20116;-96
2023/09/21 08:41:51;;;;;;;14.10;3.22;;;23.60;55.30;;;;;;4885672;29;20069;-95
2023/09/21 08:44:46;;;;;;;6.47;2.20;;;23.70;55.40;;;;;;4843725;29;20054;-95
2023/09/21 08:47:30;;;;;;;6.10;2.17;;;23.80;55.10;;;;;;4829197;29;20111;-94
2023/09/21 08:50:13;;;;;;;7.60;2.45;;;24.00;54.80;;;;;;4814601;29;20046;-96
2023/09/21 08:53:23;;;;;;;8.70;2.77;;;24.10;53.60;;;;;;5464363;23;20419;-95
2023/09/21 08:59:54;;;;;;;7.65;1.60;;;24.10;52.00;;;;;;5523075;23;20044;-95
2023/09/21 09:06:59;;;;;;;4.53;1.77;;;24.00;52.90;;;;;;4900216;29;20043;-95
2023/09/21 09:09:27;;;;;;;5.67;2.10;;;24.10;52.20;;;;;;4883146;29;20053;-95
2023/09/21 09:11:59;;;;;;;6.10;1.80;;;24.10;51.60;;;;;;4866905;29;20071;-95
2023/09/21 09:14:31;;;;;;;6.90;1.85;;;24.20;53.20;;;;;;4899194;29;20052;-95
2023/09/21 09:17:14;;;;;;;5.32;1.95;;;24.30;52.80;;;;;;4883481;29;20534;-95
2023/09/21 09:19:47;;;;;;;6.20;2.17;;;24.30;51.20;;;;;;4900347;29;20496;-95
2023/09/21 09:22:16;;;;;;;4.77;2.10;;;24.40;52.30;;;;;;4866770;29;20057;-94
2023/09/21 09:24:47;;;;;;;6.75;1.63;;;24.30;51.70;;;;;;4896917;29;20057;-95
2023/09/21 09:27:19;;;;;;;5.78;2.20;;;24.30;52.40;;;;;;4884024;29;20072;-96
2023/09/21 09:29:53;;;;;;;8.65;2.53;;;24.40;52.00;;;;;;4885576;29;20049;-94
2023/09/21 09:32:28;;;;;;;9.25;2.88;;;24.60;51.70;;;;;;4884702;29;20055;-96
2023/09/21 09:40:12;;;;;;;9.10;2.08;;;24.80;53.00;;;;;;4900890;29;20036;-95
2023/09/21 09:47:03;;;;;;;7.40;2.22;;;25.00;51.40;;;;;;4898006;29;20069;-94
2023/09/21 09:49:33;;;;;;;8.77;2.08;;;24.90;50.00;;;;;;4896732;29;20060;-95
2023/09/21 09:52:06;;;;;;;6.07;1.93;;;25.00;50.90;;;;;;4880852;29;20045;-96
2023/09/21 09:54:37;;;;;;;6.80;2.00;;;25.10;51.60;;;;;;4882467;29;20045;-96
2023/09/21 09:57:13;;;;;;;7.22;2.72;;;25.20;49.30;;;;;;4895579;29;20053;-95
2023/09/21 09:59:42;;;;;;;7.57;2.30;;;25.20;49.50;;;;;;4876573;29;20049;-95
2023/09/21 10:02:14;;;;;;;8.35;2.28;;;25.20;50.10;;;;;;4893716;29;20045;-95
2023/09/21 10:04:51;;;;;;;8.50;2.57;;;25.40;50.00;;;;;;4893362;29;20037;-95
2023/09/21 10:07:22;;;;;;;5.40;2.45;;;25.40;50.90;;;;;;4880008;29;20049;-96
2023/09/21 10:09:50;;;;;;;6.57;2.20;;;25.30;49.40;;;;;;4894023;29;20056;-95
2023/09/21 10:16:24;;;;;;;7.25;2.08;;;25.20;49.60;;;;;;4893704;29;20052;-96
2023/09/21 10:18:57;;;;;;;36.03;4.37;;;25.10;49.50;;;;;;4876122;29;20073;-94
2023/09/21 10:21:31;;;;;;;4.43;1.75;;;25.10;50.50;;;;;;4895511;29;20108;-95
2023/09/21 10:24:18;;;;;;;3.78;1.65;;;25.10;50.00;;;;;;4878584;29;20120;-96
2023/09/21 10:26:51;;;;;;;4.53;1.38;;;25.10;49.20;;;;;;4895096;29;20057;-95
2023/09/21 10:34:05;;;;;;;5.27;1.73;;;24.90;49.10;;;;;;4895043;29;20053;-95
2023/09/21 10:36:42;;;;;;;5.18;1.58;;;24.60;49.30;;;;;;4878375;29;20116;-93
2023/09/21 10:39:10;;;;;;;6.70;1.85;;;24.60;50.40;;;;;;4877658;29;20060;-95
2023/09/21 10:41:45;;;;;;;6.00;2.10;;;24.90;51.50;;;;;;4879529;29;20120;-96
2023/09/21 10:44:51;;;;;;;6.72;1.90;;;25.10;49.80;;;;;;4877642;29;20045;-96
2023/09/21 10:47:38;;;;;;;5.30;1.50;;;25.00;49.10;;;;;;4878483;29;20116;-95
2023/09/21 10:50:24;;;;;;;6.38;1.60;;;25.00;48.10;;;;;;4894237;29;20053;-95
2023/09/21 10:52:55;;;;;;;6.72;2.15;;;24.80;48.70;;;;;;4872529;29;20048;-94
2023/09/21 10:55:23;;;;;;;6.32;2.33;;;24.80;48.90;;;;;;4888409;29;20053;-94
2023/09/21 10:57:53;;;;;;;4.68;2.00;;;24.70;48.10;;;;;;4876962;29;20081;-94
2023/09/21 11:00:21;;;;;;;4.57;2.13;;;24.70;48.30;;;;;;4890522;29;20056;-96
2023/09/21 11:02:50;;;;;;;4.63;2.03;;;24.70;50.00;;;;;;4874032;29;20045;-94
2023/09/21 11:05:20;;;;;;;5.72;1.88;;;24.90;50.30;;;;;;4874676;29;20512;-94
2023/09/21 11:07:51;;;;;;;5.47;1.88;;;25.10;48.40;;;;;;4892480;29;20049;-95
2023/09/21 11:10:21;;;;;;;6.03;2.10;;;25.10;47.10;;;;;;4881894;29;20064;-96
2023/09/21 11:12:55;;;;;;;5.27;1.80;;;24.90;47.70;;;;;;4882267;29;20053;-95
2023/09/21 11:15:25;;;;;;;6.53;2.22;;;24.70;47.50;;;;;;4895757;29;20124;-94
2023/09/21 11:18:04;;;;;;;7.85;2.45;;;24.70;48.00;;;;;;4885261;29;20139;-94
2023/09/21 11:33:06;;;;;;;5.30;2.00;;;24.50;48.80;;;;;;4246764;23;20341;-92
2023/09/21 11:39:52;;;;;;;5.70;2.08;;;24.50;48.80;;;;;;4875346;29;20046;-94
2023/09/21 11:42:23;;;;;;;6.10;2.00;;;24.50;48.50;;;;;;4856527;29;20455;-93
2023/09/21 11:44:51;;;;;;;6.43;2.70;;;24.60;49.10;;;;;;4856377;29;20069;-94
2023/09/21 11:47:20;;;;;;;5.93;2.72;;;24.80;48.40;;;;;;4855451;29;20527;-95
2023/09/21 11:49:53;;;;;;;7.07;2.38;;;24.90;48.80;;;;;;4838888;29;20416;-95
2023/09/21 11:52:23;;;;;;;7.03;2.65;;;24.90;48.70;;;;;;4861198;29;20136;-94
2023/09/21 11:54:52;;;;;;;5.87;2.50;;;24.90;48.60;;;;;;4841946;29;20089;-94
2023/09/21 11:57:20;;;;;;;5.85;2.45;;;24.90;49.40;;;;;;4858264;29;20049;-93
2023/09/21 11:59:48;;;;;;;5.60;2.40;;;25.00;49.20;;;;;;4874763;29;20120;-94
2023/09/21 12:02:17;;;;;;;7.00;2.10;;;25.00;49.10;;;;;;4844386;29;20045;-94
2023/09/21 12:04:49;;;;;;;5.22;2.22;;;25.00;49.20;;;;;;4843708;29;20053;-94
2023/09/21 12:07:19;;;;;;;8.20;3.13;;;24.90;50.10;;;;;;4845331;29;20518;-96
2023/09/21 12:09:47;;;;;;;8.65;2.97;;;24.80;49.10;;;;;;4857047;29;20053;-94
2023/09/21 12:12:26;;;;;;;7.60;3.03;;;24.60;50.90;;;;;;4869359;29;20056;-96
2023/09/21 12:14:57;;;;;;;7.50;2.90;;;24.60;50.50;;;;;;4883125;29;20049;-96
2023/09/21 12:17:30;;;;;;;5.75;2.67;;;24.40;51.00;;;;;;4854000;29;20053;-96
2023/09/21 12:24:41;;;;;;;9.73;3.60;;;24.20;50.90;;;;;;4884780;29;20053;-95
2023/09/21 12:27:10;;;;;;;11.88;3.55;;;24.10;51.80;;;;;;4861788;29;20066;-95
2023/09/21 12:29:38;;;;;;;9.27;3.03;;;24.10;51.50;;;;;;4877709;29;20080;-96
2023/09/21 12:32:06;;;;;;;9.60;4.05;;;24.10;51.60;;;;;;4844399;29;20049;-95
2023/09/21 12:34:37;;;;;;;9.93;3.47;;;24.10;52.00;;;;;;4841556;29;20056;-95
2023/09/21 12:37:05;;;;;;;9.10;3.75;;;24.10;51.70;;;;;;4867359;29;20457;-96
2023/09/21 12:39:32;;;;;;;10.93;4.57;;;24.10;52.90;;;;;;4839308;29;20053;-91
2023/09/21 12:42:01;;;;;;;9.38;3.30;;;24.20;52.10;;;;;;4850522;29;20049;-94
2023/09/21 12:44:37;;;;;;;8.50;4.10;;;24.20;52.00;;;;;;4840713;29;20053;-93
2023/09/21 12:47:10;;;;;;;6.50;3.30;;;24.20;51.60;;;;;;4861596;29;20041;-95
2023/09/21 12:49:42;;;;;;;9.27;4.00;;;24.10;51.10;;;;;;4848546;29;20067;-94
2023/09/21 12:52:10;;;;;;;13.75;5.40;;;24.10;51.80;;;;;;4847616;29;20101;-95
2023/09/21 12:55:44;;;;;;;12.02;5.32;;;24.00;51.80;;;;;;4808507;29;20081;-96
2023/09/21 12:58:12;;;;;;;7.90;3.50;;;24.00;52.30;;;;;;4803220;30;20055;-95
2023/09/21 13:00:41;;;;;;;8.53;3.57;;;23.90;51.90;;;;;;4772959;30;20062;-96
2023/09/21 13:03:12;;;;;;;8.45;3.50;;;23.90;52.70;;;;;;4787323;30;20632;-95
2023/09/21 13:05:44;;;;;;;10.27;4.20;;;23.90;52.50;;;;;;4803424;30;20047;-95
2023/09/21 13:08:13;;;;;;;8.35;3.05;;;23.90;53.20;;;;;;4788380;30;20093;-95
2023/09/21 13:10:41;;;;;;;8.95;3.30;;;24.00;53.40;;;;;;4803700;30;20126;-95
2023/09/21 13:18:04;;;;;;;7.13;2.22;;;24.00;52.70;;;;;;4877827;29;20076;-96
2023/09/21 13:20:36;;;;;;;5.93;2.22;;;24.00;53.80;;;;;;4861225;29;20113;-95
2023/09/21 13:23:06;;;;;;;6.30;2.20;;;24.00;53.20;;;;;;4860744;29;20053;-95
2023/09/21 13:25:35;;;;;;;6.20;2.03;;;24.00;53.30;;;;;;4860189;29;20049;-94
2023/09/21 13:28:09;;;;;;;7.53;2.20;;;24.00;53.20;;;;;;4875992;29;20057;-94
2023/09/21 13:30:39;;;;;;;6.28;1.90;;;24.10;54.30;;;;;;4859356;29;20061;-95
2023/09/21 13:33:09;;;;;;;5.93;1.95;;;24.10;52.60;;;;;;4862045;29;20100;-95
2023/09/21 13:35:37;;;;;;;9.20;2.00;;;24.10;53.30;;;;;;4861382;29;20053;-95
2023/09/21 13:38:06;;;;;;;8.77;2.13;;;24.00;53.80;;;;;;4859413;29;20057;-96
2023/09/21 13:40:33;;;;;;;8.93;2.00;;;24.00;52.80;;;;;;4867556;29;20077;-91
2023/09/21 13:43:00;;;;;;;5.53;1.33;;;24.00;52.70;;;;;;4848254;29;20045;-91
2023/09/21 13:45:29;;;;;;;6.85;1.90;;;24.00;52.80;;;;;;4846235;29;20423;-90
2023/09/21 13:47:56;;;;;;;12.82;2.38;;;24.00;53.50;;;;;;4845903;29;20056;-90
2023/09/21 13:50:23;;;;;;;5.97;1.77;;;24.10;54.00;;;;;;4846220;29;20049;-91
2023/09/21 13:52:51;;;;;;;5.97;1.80;;;24.10;53.30;;;;;;4846437;29;20091;-91
2023/09/21 13:55:18;;;;;;;5.80;1.70;;;24.20;53.10;;;;;;4845795;29;20045;-91
2023/09/21 13:57:49;;;;;;;5.68;1.80;;;24.30;53.30;;;;;;4846526;29;20481;-91
2023/09/21 14:00:17;;;;;;;5.25;1.50;;;24.40;53.10;;;;;;4846214;29;20070;-91
2023/09/21 14:02:46;;;;;;;7.30;2.08;;;24.30;52.20;;;;;;4847013;29;20407;-90
2023/09/21 14:05:18;;;;;;;10.07;2.77;;;24.40;52.30;;;;;;4846151;29;20080;-90
2023/09/21 14:07:48;;;;;;;8.27;2.50;;;24.30;52.20;;;;;;4861155;29;20511;-92
2023/09/21 14:10:15;;;;;;;8.55;2.22;;;24.30;52.60;;;;;;4845931;29;20056;-92
2023/09/21 14:12:43;;;;;;;6.53;2.20;;;24.30;53.10;;;;;;4861585;29;20115;-92
2023/09/21 14:15:10;;;;;;;7.13;2.05;;;24.50;52.60;;;;;;4845883;29;20050;-90
2023/09/21 14:17:39;;;;;;;10.43;3.20;;;24.50;52.30;;;;;;4845470;29;20049;-91
2023/09/21 14:20:08;;;;;;;9.77;3.40;;;24.30;52.60;;;;;;4845915;29;20069;-91
2023/09/21 14:22:37;;;;;;;30.08;7.85;;;24.30;53.20;;;;;;4846095;29;20077;-91
2023/09/21 14:25:06;;;;;;;26.23;9.10;;;24.30;52.20;;;;;;4845995;29;20493;-91